West Laurens, New York
Current Conditions -  °F | °C
As of 7:19 AM on Sunday 23 Nov 2014 (Local Time) from KBGM Reporting Station
Overcast Overcast  
Wind Chill: 38°   Ceiling: 3000
Heat Index: 42°   Visibility: 10mi
Dew Point: 28°   Wind: 7mph
Humidity: 58%   Direction: 210°SSW
Pressure: 30.08"   Gusts: NA
Location:  42.5392°N, 75.1508°W
Report Text: KBGM 231219Z 21006KT 10SM OVC030 06/M02 A3008 RMK AO2 T00561022
Loading
Personal Weather Stations






























Interactive Weather Map New forecast layout! Learn more

10-Day Weather Forecast

Advertisements
Track Severe Weather on mobile